KDAB METAR and TAF | Updated Today

KDAB METAR

Daytona Beach International Airport

Observation time: 54 min. ago

KDAB 061853Z 08007KT 060V120 10SM CLR 27/13 A3006 RMK AO2 SLP177 T02670133

Need help? Read our tutorial on how to read METARs or read the parsed version below.

Daytona Beach International Airport (KDAB) METAR

  • Weather conditions on Thu, 06 Oct 2022 18:53:00 +0000 (54 min. ago):
  • Present conditions: Dry
  • Clouds: Clear skies
  • Visibility: 16093 meters
  • Wind: 80 degrees at 7 knots
  • Temperature: 27 celsius
  • Dew point: 13 celsius
  • Pressure: 30.06 inHg
  • Remarks: AO2 SLP177 T02670133


Useful to know...

KDAB TAF

Daytona Beach International Airport

KDAB 061728Z 0618/0718 07007KT P6SM FEW045 FM070000 00000KT P6SM SKC FM071500 04006KT P6SM SCT045
Observation time: 2:19 hr. ago
Need help? Read our tutorial on how to read TAFs or read the parsed version below.

Parsed version of TAF for Daytona Beach International Airport (KDAB)

  • From 06 October at 18:00 UTC, to day 07 of the month at 18:00 UTC
  • Clouds: A few at 1372 meters
  • Wind: 70 degrees at 7
  • From day 7 of the month at 00:00 UTC
  • Clouds: No significant changes expected
  • From day 7 of the month at 15:00 UTC
  • Clouds: Scattered at 1372 meters
  • Wind: 40 degrees at 6